This is the latest recevied weather packets stored in our database for station/object K1ZK-13. If no packets are shown the sender has not sent any weather packets the latest 10 day(s).
| Time | Temp. | Humidity | Pressure | Rain* | Wind** | Luminosity | Snow |
|---|---|---|---|---|---|---|---|
| 1777992268 | 20.56° C | 59% | 1004.7 hPa | 0 mm | - | 531 W/m² | - |
| 1777991965 | 21.11° C | 57% | 1005 hPa | 0 mm | - | 515 W/m² | - |
| 1777991662 | 21.11° C | 59% | 1004.9 hPa | 0 mm | - | 544 W/m² | - |
| 1777991359 | 20.56° C | 59% | 1004.8 hPa | 0 mm | - | 528 W/m² | - |
| 1777991056 | 20.56° C | 61% | 1005 hPa | 0 mm | - | 498 W/m² | - |
| 1777990753 | 20° C | 61% | 1005 hPa | 0 mm | - | 512 W/m² | - |
| 1777990451 | 19.44° C | 61% | 1005.3 hPa | 0 mm | - | 506 W/m² | - |
| 1777989844 | 18.33° C | 63% | 1005.1 hPa | 0 mm | - | 362 W/m² | - |
| 1777989541 | 17.22° C | 67% | 1005.2 hPa | 0 mm | - | 545 W/m² | - |
| 1777989237 | 16.11° C | 71% | 1005.2 hPa | 0 mm | - | 198 W/m² | - |
| 1777988933 | 17.22° C | 65% | 1005 hPa | 0 mm | - | 83 W/m² | - |
| 1777988630 | 17.22° C | 61% | 1005.8 hPa | 0 mm | - | 55 W/m² | - |
| 1777988327 | 17.22° C | 62% | 1005.8 hPa | 0 mm | - | 191 W/m² | - |
| 1777988024 | 17.22° C | 61% | 1005.7 hPa | 0 mm | - | 144 W/m² | - |
| 1777987720 | 17.78° C | 60% | 1005.5 hPa | 0 mm | - | 143 W/m² | - |
| 1777987417 | 18.89° C | 60% | 1005.5 hPa | 0 mm | - | 225 W/m² | - |
| 1777987114 | 18.33° C | 58% | 1005.4 hPa | 0 mm | - | 436 W/m² | - |
| 1777986811 | 17.78° C | 60% | 1005 hPa | 0 mm | - | 386 W/m² | - |
| 1777986509 | 18.33° C | 58% | 1005 hPa | 0 mm | - | 375 W/m² | - |
| 1777986207 | 17.78° C | 59% | 1005.1 hPa | 0 mm | - | 349 W/m² | - |
| 1777985904 | 17.78° C | 60% | 1005.3 hPa | 0 mm | - | 328 W/m² | - |
| 1777985297 | 16.67° C | 60% | 1005.4 hPa | 0 mm | - | 306 W/m² | - |
| 1777984995 | 16.67° C | 60% | 1005.7 hPa | 0 mm | - | 306 W/m² | - |
| 1777984690 | 16.67° C | 61% | 1005.5 hPa | 0 mm | - | 257 W/m² | - |
| 1777984387 | 15.56° C | 63% | 1005.4 hPa | 0 mm | - | 108 W/m² | - |
* Rain latest hour (hover to see other rain measurements)
** Current wind speed in m/s (hover to see current wind gust speed)